createdAt,value
2023-02-19T00:01:31.404Z,1.80
2023-02-19T00:04:04.117Z,2.00
2023-02-19T00:06:33.782Z,1.75
2023-02-19T00:09:01.078Z,1.92
2023-02-19T00:11:31.455Z,2.50
2023-02-19T00:13:59.908Z,2.00
2023-02-19T00:16:35.267Z,2.05
2023-02-19T00:19:04.014Z,2.30
2023-02-19T00:21:31.230Z,2.08
2023-02-19T00:24:01.391Z,2.30
2023-02-19T00:26:29.111Z,1.70
2023-02-19T00:28:57.772Z,1.67
2023-02-19T00:31:27.519Z,2.00
2023-02-19T00:33:57.457Z,2.10
2023-02-19T00:36:25.425Z,2.00
2023-02-19T00:38:52.768Z,2.57
2023-02-19T00:41:21.038Z,1.90
2023-02-19T00:43:58.186Z,1.90
2023-02-19T00:46:26.326Z,2.60
2023-02-19T00:48:53.554Z,2.20
2023-02-19T00:51:22.506Z,2.33
2023-02-19T00:53:49.303Z,2.20
2023-02-19T00:56:16.646Z,2.60
2023-02-19T00:58:43.478Z,2.33
2023-02-19T01:01:11.183Z,3.13
2023-02-19T01:03:39.595Z,2.73
2023-02-19T01:06:08.816Z,2.85
2023-02-19T01:08:36.231Z,3.50
2023-02-19T01:11:06.189Z,3.90
2023-02-19T01:13:33.559Z,4.45
2023-02-19T01:16:19.538Z,3.50
2023-02-19T01:18:47.854Z,3.40
2023-02-19T01:21:19.070Z,3.45
2023-02-19T01:23:46.798Z,3.10
2023-02-19T01:26:16.340Z,3.10
2023-02-19T01:28:44.033Z,3.30
2023-02-19T01:31:14.397Z,2.70
2023-02-19T01:33:48.028Z,2.92
2023-02-19T01:36:15.317Z,2.70
2023-02-19T01:38:42.959Z,2.50
2023-02-19T01:41:13.386Z,2.53
2023-02-19T01:44:04.078Z,2.67
2023-02-19T01:46:32.904Z,2.72
2023-02-19T01:49:06.182Z,3.03
2023-02-19T01:51:35.448Z,2.55
2023-02-19T01:54:05.603Z,2.70
2023-02-19T01:56:35.358Z,2.90
2023-02-19T01:59:02.354Z,2.28
2023-02-19T02:01:29.362Z,2.42
2023-02-19T02:03:56.232Z,2.35
2023-02-19T02:06:24.210Z,2.63
2023-02-19T02:09:13.425Z,2.60
2023-02-19T02:11:45.901Z,2.10
2023-02-19T02:14:12.921Z,2.47
2023-02-19T02:16:53.964Z,2.25
2023-02-19T02:19:58.096Z,2.30
2023-02-19T02:22:36.771Z,2.67
2023-02-19T02:25:16.694Z,2.33
2023-02-19T02:28:21.497Z,2.50
2023-02-19T02:30:58.247Z,3.03
2023-02-19T02:33:32.795Z,2.70
2023-02-19T02:36:13.122Z,2.70
2023-02-19T02:38:44.085Z,2.60
2023-02-19T02:41:12.919Z,2.72
2023-02-19T02:43:39.955Z,2.70
2023-02-19T02:46:06.916Z,2.50
2023-02-19T02:48:45.038Z,2.33
2023-02-19T02:51:33.191Z,2.50
2023-02-19T02:54:30.869Z,1.90
2023-02-19T02:57:00.229Z,1.70
2023-02-19T02:59:34.037Z,1.83
2023-02-19T03:02:12.103Z,2.15
2023-02-19T03:05:21.543Z,1.70
2023-02-19T03:07:53.102Z,2.30
2023-02-19T03:10:27.068Z,2.30
2023-02-19T03:13:14.401Z,2.17
2023-02-19T03:16:24.924Z,1.88
2023-02-19T03:19:13.079Z,2.42
2023-02-19T03:21:42.304Z,2.30
2023-02-19T03:24:30.735Z,2.50
2023-02-19T03:26:59.900Z,2.20
2023-02-19T03:29:35.638Z,2.90
2023-02-19T03:32:12.336Z,3.05
2023-02-19T03:34:48.489Z,2.80
2023-02-19T03:37:46.866Z,2.92
2023-02-19T03:40:14.854Z,2.30
2023-02-19T03:43:09.364Z,3.00
2023-02-19T03:45:49.636Z,2.40
2023-02-19T03:48:35.046Z,2.90
2023-02-19T03:51:25.054Z,2.58
2023-02-19T03:54:02.494Z,2.30
2023-02-19T03:56:54.735Z,2.45
2023-02-19T03:59:29.177Z,2.78
2023-02-19T04:02:07.330Z,2.38
2023-02-19T04:04:39.366Z,2.50
2023-02-19T04:07:06.662Z,2.63
2023-02-19T04:09:38.301Z,2.72
2023-02-19T04:12:11.693Z,2.33
2023-02-19T04:14:47.775Z,2.25
2023-02-19T04:17:21.098Z,2.33
2023-02-19T04:19:50.679Z,2.10
2023-02-19T04:22:17.834Z,2.40
2023-02-19T04:24:52.829Z,2.42
2023-02-19T04:27:19.781Z,2.25
2023-02-19T04:29:46.886Z,2.35
2023-02-19T04:32:14.436Z,2.60
2023-02-19T04:34:41.208Z,2.10
2023-02-19T04:37:08.120Z,2.10
2023-02-19T04:39:35.302Z,2.40
2023-02-19T04:42:02.177Z,2.40
2023-02-19T04:44:28.990Z,2.10
2023-02-19T04:46:55.887Z,2.35
2023-02-19T04:49:22.677Z,2.28
2023-02-19T04:51:49.584Z,2.53
2023-02-19T04:54:16.405Z,2.00
2023-02-19T04:56:43.179Z,2.43
2023-02-19T04:59:10.419Z,2.47
2023-02-19T05:01:37.317Z,2.60
2023-02-19T05:04:05.003Z,2.20
2023-02-19T05:06:31.904Z,3.10
2023-02-19T05:08:58.765Z,2.70
2023-02-19T05:11:25.684Z,2.90
2023-02-19T05:13:52.634Z,2.95
2023-02-19T05:16:19.487Z,2.72
2023-02-19T05:18:47.363Z,2.78
2023-02-19T05:21:14.959Z,2.80
2023-02-19T05:23:42.148Z,2.70
2023-02-19T05:26:13.102Z,2.70
2023-02-19T05:28:40.391Z,2.70
2023-02-19T05:31:09.053Z,2.85
2023-02-19T05:33:37.312Z,2.30
2023-02-19T05:36:07.584Z,2.20
2023-02-19T05:38:34.600Z,2.67
2023-02-19T05:41:28.613Z,2.20
2023-02-19T05:43:56.643Z,2.22
2023-02-19T05:46:26.674Z,1.90
2023-02-19T05:48:54.199Z,1.80
2023-02-19T05:51:22.855Z,1.98
2023-02-19T05:53:50.663Z,1.60
2023-02-19T05:56:26.293Z,1.83
2023-02-19T05:58:54.327Z,1.60
2023-02-19T06:01:24.839Z,1.20
2023-02-19T06:03:51.712Z,1.60
2023-02-19T06:06:19.516Z,1.10
2023-02-19T06:08:48.707Z,1.27
2023-02-19T06:11:15.975Z,1.33
2023-02-19T06:13:42.876Z,1.10
2023-02-19T06:16:10.227Z,1.13
2023-02-19T06:18:37.453Z,1.05
2023-02-19T06:21:06.312Z,1.10
2023-02-19T06:23:33.600Z,1.33
2023-02-19T06:26:21.700Z,1.30
2023-02-19T06:28:50.244Z,1.40
2023-02-19T06:31:18.694Z,1.27
2023-02-19T06:33:45.730Z,1.20
2023-02-19T06:36:15.667Z,1.07
2023-02-19T06:38:42.772Z,1.20
2023-02-19T06:41:10.568Z,1.27
2023-02-19T06:43:37.506Z,1.40
2023-02-19T06:46:06.158Z,1.10
2023-02-19T06:48:33.746Z,0.80
2023-02-19T06:51:00.734Z,1.20
2023-02-19T06:53:27.754Z,1.30
2023-02-19T06:56:07.042Z,1.10
2023-02-19T06:58:34.205Z,1.30
2023-02-19T07:01:01.060Z,1.30
2023-02-19T07:03:27.795Z,1.30
2023-02-19T07:05:54.536Z,1.50
2023-02-19T07:08:21.381Z,1.30
2023-02-19T07:10:56.543Z,1.13
2023-02-19T07:13:24.466Z,1.10
2023-02-19T07:15:52.277Z,0.93
2023-02-19T07:18:19.381Z,1.20
2023-02-19T07:20:46.121Z,1.00
2023-02-19T07:23:12.943Z,1.00
2023-02-19T07:25:40.031Z,0.70
2023-02-19T07:28:07.195Z,0.80
2023-02-19T07:30:34.529Z,0.90
2023-02-19T07:33:01.521Z,0.73
2023-02-19T07:35:28.604Z,0.90
2023-02-19T07:37:55.372Z,1.10
2023-02-19T07:40:22.159Z,0.80
2023-02-19T07:42:48.895Z,0.90
2023-02-19T07:45:16.947Z,0.85
2023-02-19T07:47:43.714Z,0.98
2023-02-19T07:50:12.403Z,0.93
2023-02-19T07:52:40.622Z,1.30
2023-02-19T07:55:07.567Z,1.17
2023-02-19T07:57:34.408Z,1.15
2023-02-19T08:00:01.378Z,1.00
2023-02-19T08:02:46.658Z,1.10
2023-02-19T08:05:14.123Z,1.00
2023-02-19T08:07:41.142Z,1.23
2023-02-19T08:10:27.104Z,1.20
2023-02-19T08:13:17.418Z,1.05
2023-02-19T08:15:44.546Z,1.27
2023-02-19T08:18:12.011Z,0.85
2023-02-19T08:20:39.083Z,0.98
2023-02-19T08:23:06.597Z,1.13
2023-02-19T08:25:33.726Z,1.10
2023-02-19T08:28:01.368Z,0.90
2023-02-19T08:30:29.566Z,0.90
2023-02-19T08:33:00.168Z,1.10
2023-02-19T08:35:28.374Z,0.80
2023-02-19T08:37:59.287Z,1.08
2023-02-19T08:40:27.027Z,1.30
2023-02-19T08:42:54.183Z,1.20
2023-02-19T08:45:21.346Z,0.90
2023-02-19T08:47:48.177Z,1.00
2023-02-19T08:50:14.921Z,1.00
2023-02-19T08:52:41.590Z,1.10
2023-02-19T08:55:08.563Z,1.30
2023-02-19T08:57:37.699Z,1.15
2023-02-19T09:00:06.293Z,0.98
2023-02-19T09:02:33.612Z,1.20
2023-02-19T09:05:00.735Z,1.13
2023-02-19T09:07:27.845Z,1.20
2023-02-19T09:09:54.684Z,1.17
2023-02-19T09:12:21.430Z,1.17
2023-02-19T09:14:49.289Z,1.10
2023-02-19T09:17:16.074Z,1.00
2023-02-19T09:19:43.354Z,0.90
2023-02-19T09:22:10.210Z,1.30
2023-02-19T09:24:36.995Z,1.20
2023-02-19T09:27:04.123Z,1.10
2023-02-19T09:29:30.901Z,1.00
2023-02-19T09:31:59.279Z,1.30
2023-02-19T09:34:27.902Z,1.40
2023-02-19T09:36:55.101Z,1.10
2023-02-19T09:39:22.007Z,1.08
2023-02-19T09:42:01.406Z,0.90
2023-02-19T09:44:32.883Z,0.70
2023-02-19T09:47:01.784Z,0.90
2023-02-19T09:49:37.836Z,0.77
2023-02-19T09:52:45.568Z,0.75
2023-02-19T09:55:22.755Z,1.00
2023-02-19T09:57:51.741Z,0.95
2023-02-19T10:00:24.708Z,0.80
2023-02-19T10:03:03.422Z,0.90
2023-02-19T10:05:30.572Z,0.98
2023-02-19T10:07:58.555Z,0.80
2023-02-19T10:10:30.783Z,0.80
2023-02-19T10:13:11.369Z,0.88
2023-02-19T10:15:48.769Z,0.80
2023-02-19T10:18:22.035Z,0.50
2023-02-19T10:20:50.784Z,0.67
2023-02-19T10:23:17.945Z,1.00
2023-02-19T10:25:59.183Z,0.73
2023-02-19T10:28:33.579Z,0.95
2023-02-19T10:31:03.382Z,0.70
2023-02-19T10:33:30.642Z,0.80
2023-02-19T10:36:07.935Z,0.82
2023-02-19T10:38:38.586Z,1.02
2023-02-19T10:41:08.840Z,0.70
2023-02-19T10:43:39.936Z,1.17
2023-02-19T10:46:14.530Z,1.03
2023-02-19T10:48:49.702Z,0.88
2023-02-19T10:51:21.680Z,0.70
2023-02-19T10:53:52.335Z,0.85
2023-02-19T10:56:27.442Z,0.90
2023-02-19T10:58:55.177Z,0.93
2023-02-19T11:01:23.980Z,0.98
2023-02-19T11:03:52.444Z,0.80
2023-02-19T11:06:21.816Z,0.60
2023-02-19T11:08:59.934Z,1.17
2023-02-19T11:11:37.094Z,0.87
2023-02-19T11:14:16.762Z,0.90
2023-02-19T11:16:58.501Z,0.90
2023-02-19T11:19:27.936Z,0.73
2023-02-19T11:21:55.610Z,0.90
2023-02-19T11:24:27.258Z,0.97
2023-02-19T11:26:54.359Z,0.75
2023-02-19T11:29:24.671Z,0.75
2023-02-19T11:31:51.853Z,0.80
2023-02-19T11:34:21.265Z,0.75
2023-02-19T11:37:07.718Z,0.87
2023-02-19T11:39:35.750Z,0.80
2023-02-19T11:42:29.479Z,0.88
2023-02-19T11:45:08.487Z,0.73
2023-02-19T11:47:59.886Z,0.80
2023-02-19T11:50:56.966Z,1.13
2023-02-19T11:53:29.248Z,0.80
2023-02-19T11:56:34.198Z,0.70
2023-02-19T11:59:09.719Z,0.80
2023-02-19T12:01:58.291Z,0.60
2023-02-19T12:05:00.304Z,0.63
2023-02-19T12:07:57.956Z,0.60
2023-02-19T12:10:54.858Z,0.70
2023-02-19T12:13:48.890Z,0.68
2023-02-19T12:16:25.978Z,0.75
2023-02-19T12:18:58.950Z,0.70
2023-02-19T12:21:35.474Z,0.63
2023-02-19T12:24:47.029Z,0.45
2023-02-19T12:27:32.622Z,0.75
2023-02-19T12:30:28.732Z,0.63
2023-02-19T12:33:04.226Z,0.70
2023-02-19T12:35:42.575Z,0.60
2023-02-19T12:38:27.278Z,0.90
2023-02-19T12:41:02.826Z,0.60
2023-02-19T12:43:32.092Z,0.70
2023-02-19T12:46:04.935Z,0.60
2023-02-19T12:49:04.020Z,0.60
2023-02-19T12:51:48.827Z,0.70
2023-02-19T12:54:21.704Z,0.57
2023-02-19T12:56:55.555Z,0.43
2023-02-19T12:59:29.265Z,0.30
2023-02-19T13:02:16.262Z,0.57
2023-02-19T13:04:47.474Z,0.50
2023-02-19T13:07:45.807Z,0.50
2023-02-19T13:10:37.703Z,0.80
2023-02-19T13:13:10.794Z,0.50
2023-02-19T13:16:01.029Z,0.52
2023-02-19T13:18:49.263Z,0.80
2023-02-19T13:21:39.036Z,0.70
2023-02-19T13:24:20.907Z,0.70
2023-02-19T13:27:02.906Z,0.60
2023-02-19T13:30:00.578Z,0.93
2023-02-19T13:32:53.475Z,1.00
2023-02-19T13:35:26.969Z,0.50
2023-02-19T13:37:55.462Z,1.10
2023-02-19T13:40:35.829Z,0.80
2023-02-19T13:43:05.366Z,0.90
2023-02-19T13:45:40.020Z,0.50
2023-02-19T13:48:27.953Z,0.60
2023-02-19T13:51:12.895Z,0.88
2023-02-19T13:53:45.670Z,0.73
2023-02-19T13:56:34.425Z,0.57
2023-02-19T13:59:25.249Z,0.75
2023-02-19T14:01:54.655Z,0.60
2023-02-19T14:04:43.055Z,0.70
2023-02-19T14:07:09.712Z,0.60
2023-02-19T14:09:45.555Z,0.60
2023-02-19T14:12:16.063Z,0.63
2023-02-19T14:14:56.627Z,0.70
2023-02-19T14:17:37.317Z,0.60
2023-02-19T14:20:09.883Z,0.70
2023-02-19T14:22:57.009Z,0.77
2023-02-19T14:25:49.818Z,0.70
2023-02-19T14:28:22.926Z,0.80
2023-02-19T14:30:49.784Z,0.77
2023-02-19T14:33:19.537Z,0.70
2023-02-19T14:35:49.054Z,0.70
2023-02-19T14:38:27.139Z,0.70
2023-02-19T14:40:55.431Z,0.75
2023-02-19T14:43:24.904Z,0.68
2023-02-19T14:46:07.023Z,0.60
2023-02-19T14:48:41.757Z,0.60
2023-02-19T14:51:16.430Z,0.75
2023-02-19T14:53:45.286Z,0.77
2023-02-19T14:56:23.190Z,0.70
2023-02-19T14:59:25.421Z,0.77
2023-02-19T15:02:16.361Z,0.63
2023-02-19T15:04:43.637Z,1.00
2023-02-19T15:07:15.897Z,0.80
2023-02-19T15:09:46.957Z,0.75
2023-02-19T15:12:20.299Z,0.60
2023-02-19T15:14:48.735Z,0.70
2023-02-19T15:17:27.550Z,0.70
2023-02-19T15:19:55.721Z,0.52
2023-02-19T15:22:26.022Z,1.05
2023-02-19T15:24:52.821Z,0.80
2023-02-19T15:27:24.637Z,0.77
2023-02-19T15:29:53.701Z,0.90
2023-02-19T15:32:24.409Z,0.68
2023-02-19T15:35:02.911Z,0.73
2023-02-19T15:37:32.929Z,0.90
2023-02-19T15:40:05.546Z,0.90
2023-02-19T15:42:35.032Z,0.90
2023-02-19T15:45:19.883Z,0.85
2023-02-19T15:48:06.859Z,1.20
2023-02-19T15:50:36.198Z,0.67
2023-02-19T15:53:09.341Z,0.70
2023-02-19T15:55:54.147Z,0.75
2023-02-19T15:58:35.656Z,0.77
2023-02-19T16:01:31.529Z,0.85
2023-02-19T16:03:58.920Z,0.80
2023-02-19T16:06:27.081Z,1.10
2023-02-19T16:09:02.159Z,1.20
2023-02-19T16:11:29.118Z,0.95
2023-02-19T16:14:19.354Z,0.70
2023-02-19T16:16:49.981Z,1.10
2023-02-19T16:19:44.839Z,0.65
2023-02-19T16:22:13.525Z,1.25
2023-02-19T16:24:46.394Z,0.85
2023-02-19T16:27:14.696Z,0.88
2023-02-19T16:29:41.512Z,0.90
2023-02-19T16:32:16.866Z,1.00
2023-02-19T16:34:50.445Z,1.23
2023-02-19T16:37:56.091Z,1.10
2023-02-19T16:40:35.329Z,1.10
2023-02-19T16:43:04.957Z,1.07
2023-02-19T16:45:31.773Z,0.90
2023-02-19T16:47:58.597Z,1.10
2023-02-19T16:50:29.032Z,1.10
2023-02-19T16:52:57.929Z,1.20
2023-02-19T16:55:25.555Z,1.00
2023-02-19T16:57:52.753Z,1.10
2023-02-19T17:00:22.148Z,1.33
2023-02-19T17:02:51.959Z,1.25
2023-02-19T17:05:20.244Z,1.23
2023-02-19T17:07:47.866Z,1.40
2023-02-19T17:10:19.804Z,1.20
2023-02-19T17:12:47.118Z,1.40
2023-02-19T17:15:14.160Z,1.33
2023-02-19T17:17:41.915Z,1.70
2023-02-19T17:20:27.600Z,1.23
2023-02-19T17:22:55.252Z,1.20
2023-02-19T17:25:22.408Z,1.13
2023-02-19T17:27:49.775Z,1.23
2023-02-19T17:30:23.747Z,1.27
2023-02-19T17:32:51.721Z,1.20
2023-02-19T17:35:18.798Z,1.33
2023-02-19T17:37:45.814Z,1.60
2023-02-19T17:40:33.246Z,1.20
2023-02-19T17:43:01.421Z,1.58
2023-02-19T17:45:29.485Z,1.63
2023-02-19T17:47:57.106Z,1.00
2023-02-19T17:50:30.406Z,1.20
2023-02-19T17:52:57.674Z,1.20
2023-02-19T17:55:25.655Z,0.90
2023-02-19T17:57:53.124Z,1.20
2023-02-19T18:00:23.392Z,0.98
2023-02-19T18:02:50.973Z,1.27
2023-02-19T18:05:18.566Z,1.10
2023-02-19T18:07:46.362Z,1.20
2023-02-19T18:10:13.962Z,1.00
2023-02-19T18:12:40.970Z,1.20
2023-02-19T18:15:09.177Z,1.15
2023-02-19T18:17:36.238Z,1.20
2023-02-19T18:20:04.791Z,1.13
2023-02-19T18:22:32.311Z,1.30
2023-02-19T18:24:59.345Z,1.10
2023-02-19T18:27:26.362Z,1.30
2023-02-19T18:29:56.587Z,0.77
2023-02-19T18:32:24.969Z,1.38
2023-02-19T18:34:53.409Z,1.03
2023-02-19T18:37:20.316Z,1.13
2023-02-19T18:39:47.684Z,0.88
2023-02-19T18:42:15.322Z,1.20
2023-02-19T18:44:43.894Z,1.00
2023-02-19T18:47:11.573Z,1.00
2023-02-19T18:49:38.916Z,1.02
2023-02-19T18:52:06.565Z,1.20
2023-02-19T18:54:33.378Z,1.13
2023-02-19T18:57:00.758Z,1.20
2023-02-19T18:59:27.612Z,1.10
2023-02-19T19:01:54.330Z,0.90
2023-02-19T19:04:21.217Z,1.10
2023-02-19T19:06:48.990Z,1.25
2023-02-19T19:09:15.859Z,1.23
2023-02-19T19:11:44.435Z,1.00
2023-02-19T19:14:11.297Z,0.80
2023-02-19T19:16:38.158Z,1.10
2023-02-19T19:19:04.892Z,1.00
2023-02-19T19:21:31.745Z,1.10
2023-02-19T19:23:58.544Z,1.40
2023-02-19T19:26:25.862Z,1.33
2023-02-19T19:28:52.604Z,0.90
2023-02-19T19:31:20.846Z,1.10
2023-02-19T19:33:48.936Z,1.25
2023-02-19T19:36:20.187Z,1.40
2023-02-19T19:38:47.532Z,0.93
2023-02-19T19:41:16.237Z,1.60
2023-02-19T19:43:43.001Z,1.15
2023-02-19T19:46:10.587Z,1.33
2023-02-19T19:48:40.234Z,1.33
2023-02-19T19:51:08.052Z,1.20
2023-02-19T19:53:34.843Z,1.10
2023-02-19T19:56:01.910Z,1.00
2023-02-19T19:58:28.829Z,1.23
2023-02-19T20:00:55.801Z,1.13
2023-02-19T20:03:22.774Z,1.50
2023-02-19T20:05:52.546Z,1.20
2023-02-19T20:08:19.772Z,1.10
2023-02-19T20:10:46.736Z,1.40
2023-02-19T20:13:18.032Z,1.50
2023-02-19T20:15:45.678Z,1.25
2023-02-19T20:18:12.713Z,1.27
2023-02-19T20:20:39.528Z,1.30
2023-02-19T20:23:06.250Z,1.23
2023-02-19T20:25:33.019Z,1.50
2023-02-19T20:27:59.814Z,1.20
2023-02-19T20:30:26.808Z,1.40
2023-02-19T20:32:53.795Z,1.20
2023-02-19T20:35:20.851Z,1.10
2023-02-19T20:37:49.391Z,1.20
2023-02-19T20:40:17.556Z,1.10
2023-02-19T20:42:44.434Z,1.20
2023-02-19T20:45:11.252Z,1.10
2023-02-19T20:47:39.875Z,1.50
2023-02-19T20:50:07.695Z,1.23
2023-02-19T20:52:34.600Z,1.33
2023-02-19T20:55:01.352Z,1.35
2023-02-19T20:57:28.129Z,1.20
2023-02-19T20:59:54.935Z,1.38
2023-02-19T21:02:27.786Z,1.37
2023-02-19T21:04:56.710Z,1.40
2023-02-19T21:07:26.866Z,1.75
2023-02-19T21:09:54.020Z,1.20
2023-02-19T21:12:22.170Z,1.30
2023-02-19T21:14:49.452Z,1.53
2023-02-19T21:17:16.416Z,1.30
2023-02-19T21:19:43.373Z,1.42
2023-02-19T21:22:10.172Z,0.90
2023-02-19T21:24:37.025Z,1.42
2023-02-19T21:27:03.906Z,1.10
2023-02-19T21:29:30.672Z,0.95
2023-02-19T21:31:58.160Z,1.10
2023-02-19T21:34:29.542Z,1.60
2023-02-19T21:36:57.044Z,1.40
2023-02-19T21:39:25.365Z,1.37
2023-02-19T21:41:52.206Z,1.20
2023-02-19T21:44:19.459Z,1.40
2023-02-19T21:46:46.298Z,1.23
2023-02-19T21:49:13.424Z,1.25
2023-02-19T21:51:44.458Z,1.23
2023-02-19T21:54:17.019Z,1.40
2023-02-19T21:56:44.188Z,1.35
2023-02-19T21:59:11.337Z,1.15
2023-02-19T22:01:38.895Z,1.38
2023-02-19T22:04:07.132Z,1.27
2023-02-19T22:06:34.367Z,1.70
2023-02-19T22:09:02.076Z,1.40
2023-02-19T22:11:29.064Z,1.50
2023-02-19T22:13:56.028Z,1.83
2023-02-19T22:16:22.881Z,1.40
2023-02-19T22:18:54.332Z,1.17
2023-02-19T22:21:22.578Z,1.45
2023-02-19T22:23:51.018Z,1.30
2023-02-19T22:26:24.444Z,1.52
2023-02-19T22:28:51.734Z,1.30
2023-02-19T22:31:20.764Z,1.10
2023-02-19T22:33:47.903Z,1.60
2023-02-19T22:36:23.917Z,1.60
2023-02-19T22:38:50.849Z,1.70
2023-02-19T22:41:18.973Z,1.40
2023-02-19T22:43:46.157Z,1.58
2023-02-19T22:46:18.818Z,1.60
2023-02-19T22:48:46.778Z,1.55
2023-02-19T22:51:16.060Z,1.52
2023-02-19T22:53:45.655Z,1.53
2023-02-19T22:56:14.578Z,1.50
2023-02-19T22:58:42.077Z,1.20
2023-02-19T23:01:10.534Z,1.52
2023-02-19T23:03:57.305Z,1.88
2023-02-19T23:06:30.443Z,1.70
2023-02-19T23:08:59.067Z,1.40
2023-02-19T23:11:29.893Z,1.45
2023-02-19T23:13:56.880Z,1.52
2023-02-19T23:16:24.449Z,1.40
2023-02-19T23:18:51.357Z,1.50
2023-02-19T23:21:19.369Z,1.73
2023-02-19T23:23:46.898Z,1.60
2023-02-19T23:26:15.285Z,1.50
2023-02-19T23:28:43.596Z,1.77
2023-02-19T23:31:11.406Z,1.50
2023-02-19T23:33:38.693Z,1.80
2023-02-19T23:36:05.787Z,1.92
2023-02-19T23:38:33.757Z,1.65
2023-02-19T23:41:00.742Z,2.08
2023-02-19T23:43:27.761Z,1.77
2023-02-19T23:45:54.545Z,1.77
2023-02-19T23:48:21.354Z,1.70
2023-02-19T23:50:48.231Z,1.70
2023-02-19T23:53:15.000Z,1.98
2023-02-19T23:55:41.935Z,1.60
2023-02-19T23:58:08.741Z,1.77
